Date,TemperatureHighF,TemperatureAvgF,TemperatureLowF,DewpointHighF,DewpointAvgF,DewpointLowF,HumidityHigh,HumidityAvg,HumidityLow,PressureMaxIn,PressureMinIn,WindSpeedMaxMPH,WindSpeedAvgMPH,GustSpeedMaxMPH,PrecipitationSumIn
2013-8-1,85.1,78.3,74.1,74.1,66.7,52.6,95,70,33,30.00,29.91,0,0,0,0.87
2013-8-2,88.7,80.8,75.6,77.1,68.1,54.1,92,68,33,30.03,29.91,0,0,0,1.26
2013-8-3,88.3,82.9,77.5,76.9,66.3,58.2,90,61,38,30.03,29.91,0,0,0,0.00
2013-8-4,93.9,83.4,75.4,72.5,58.2,43.8,87,48,18,29.97,29.88,0,0,0,0.00
2013-8-5,86.4,82.6,79.3,47.0,39.5,36.1,31,22,19,30.06,30.00,0,0,0,0.00
2013-8-6,86.5,81.2,78.3,49.4,45.2,37.3,35,28,22,30.06,29.97,0,0,0,0.00
2013-8-7,86.0,79.6,73.0,69.8,55.8,45.9,80,46,29,30.09,30.00,0,0,0,0.00
2013-8-8,87.8,80.6,73.4,79.8,66.5,54.9,95,65,36,30.06,30.00,0,0,0,0.00
2013-8-9,89.8,83.4,78.1,76.9,64.9,54.0,88,56,32,30.09,30.00,0,0,0,0.00
2013-8-10,90.9,83.3,75.9,77.7,64.8,52.3,93,57,28,30.12,30.03,0,0,0,0.00
2013-8-11,95.2,84.6,77.9,74.6,63.8,47.0,88,53,20,30.12,30.03,0,0,0,0.00
2013-8-12,95.5,85.1,79.0,76.4,62.9,44.9,83,51,19,30.06,29.94,0,0,0,0.00
2013-8-13,96.6,85.1,79.2,75.8,63.3,44.2,82,51,17,29.97,29.83,0,0,0,0.00
2013-8-14,84.9,78.3,68.0,72.9,65.9,56.7,89,67,39,30.00,29.83,0,0,0,0.00
2013-8-15,70.5,66.9,64.0,69.6,65.2,58.9,98,94,76,30.09,30.00,0,0,0,0.35
2013-8-16,75.4,70.6,66.2,70.8,65.4,57.4,93,84,54,30.09,30.03,0,0,0,0.67
2013-8-17,82.9,74.4,69.4,71.1,64.6,55.8,97,74,40,30.15,30.03,0,0,0,0.00
2013-8-18,85.1,77.6,71.1,73.9,66.4,58.1,96,71,41,30.18,30.12,0,0,0,0.00
2013-8-19,88.0,79.5,75.6,80.3,71.6,54.2,94,79,35,30.15,30.03,0,0,0,0.51
2013-8-20,87.3,80.0,73.9,80.9,70.7,61.7,98,76,43,30.15,30.06,0,0,0,0.00
2013-8-21,88.9,82.1,75.4,81.4,66.5,55.6,96,63,34,30.21,30.09,0,0,0,0.00
2013-8-22,89.6,80.3,74.8,72.7,65.2,52.0,91,64,28,30.15,30.00,0,0,0,0.00
2013-8-23,93.7,81.9,74.7,71.2,61.4,43.4,88,54,18,30.03,29.94,0,0,0,0.00
2013-8-24,83.3,77.3,72.5,69.3,55.1,41.6,86,50,26,30.21,30.00,0,0,0,0.00
2013-8-25,82.0,74.9,65.8,58.0,46.3,38.2,75,39,22,30.30,30.21,0,0,0,0.00
2013-8-26,83.1,75.2,65.8,56.4,46.1,36.0,70,39,19,30.24,30.12,0,0,0,0.00
2013-8-27,84.7,76.1,67.3,66.6,50.1,37.4,91,46,20,30.12,30.00,0,0,0,0.00
2013-8-28,88.5,79.8,72.0,63.1,54.1,44.1,73,43,24,30.00,29.91,0,0,0,0.00
2013-8-29,94.1,82.2,74.8,68.0,57.4,44.5,66,45,19,29.94,29.85,0,0,0,0.00
2013-8-30,83.3,79.1,72.3,70.4,62.6,55.8,84,59,40,30.00,29.91,0,0,0,0.00
2013-8-31,86.9,80.8,72.9,77.0,65.8,57.0,95,63,39,29.97,29.88,0,0,0,0.00